Time;durP1;ratioP1;P1;durP2;ratioP2;P2;SDS_P1;SDS_P2;PMS_P1;PMS_P2;Temp;Humidity;BMP_temperature;BMP_pressure;BME280_temperature;BME280_humidity;BME280_pressure;Samples;Min_cycle;Max_cycle;Signal;HPM_P1;HPM_P2
2021/12/09 00:00:29;;;;;;;6.35;4.28;;;;;;;1.46;100.00;100054.78;6223407;28;20058;-74
2021/12/09 00:03:34;;;;;;;6.20;2.65;;;;;;;1.47;100.00;100063.41;6223227;28;20545;-74
2021/12/09 00:06:36;;;;;;;3.60;2.45;;;;;;;1.48;100.00;100057.31;6223622;28;20444;-74
2021/12/09 00:09:38;;;;;;;4.85;2.97;;;;;;;1.43;100.00;100067.81;6223221;28;20049;-75
2021/12/09 00:12:41;;;;;;;8.07;3.70;;;;;;;1.43;100.00;100056.59;6223265;28;20046;-74
2021/12/09 00:15:42;;;;;;;5.50;3.50;;;;;;;1.43;100.00;100052.28;6223132;28;20050;-74
2021/12/09 00:18:44;;;;;;;7.15;3.17;;;;;;;1.46;100.00;100057.38;6223338;28;20492;-74
2021/12/09 00:21:45;;;;;;;7.30;3.17;;;;;;;1.46;100.00;100056.53;6222720;28;20050;-74
2021/12/09 00:24:47;;;;;;;3.70;2.63;;;;;;;1.48;100.00;100060.75;6223211;28;20045;-74
2021/12/09 00:27:51;;;;;;;7.03;3.25;;;;;;;1.51;100.00;100057.25;6221320;28;20520;-74
2021/12/09 00:30:53;;;;;;;6.90;3.42;;;;;;;1.53;100.00;100053.72;6222673;28;20058;-74
2021/12/09 00:33:56;;;;;;;5.43;2.80;;;;;;;1.56;100.00;100055.38;6215967;28;20665;-74
2021/12/09 00:37:02;;;;;;;6.78;3.58;;;;;;;1.56;100.00;100060.56;6199373;28;20073;-74
2021/12/09 00:40:06;;;;;;;4.57;2.78;;;;;;;1.57;100.00;100049.31;6214441;28;20056;-74
2021/12/09 00:43:08;;;;;;;6.25;2.97;;;;;;;1.54;100.00;100051.97;6222311;28;20049;-74
2021/12/09 00:46:10;;;;;;;4.18;2.55;;;;;;;1.53;100.00;100042.50;6214349;28;20046;-74
2021/12/09 00:49:12;;;;;;;6.20;3.03;;;;;;;1.52;100.00;100049.44;6220776;28;20053;-73
2021/12/09 00:52:14;;;;;;;4.13;2.83;;;;;;;1.55;100.00;100053.69;6222510;28;20056;-73
2021/12/09 00:55:17;;;;;;;5.05;2.40;;;;;;;1.53;100.00;100052.88;6222260;28;20519;-73
2021/12/09 00:58:20;;;;;;;8.50;3.10;;;;;;;1.55;100.00;100058.03;6214678;28;20050;-74
2021/12/09 01:01:21;;;;;;;3.55;2.63;;;;;;;1.54;100.00;100059.72;6197687;28;20057;-74
2021/12/09 01:04:22;;;;;;;4.95;3.00;;;;;;;1.54;100.00;100057.16;6198124;28;20054;-73
2021/12/09 01:07:24;;;;;;;6.10;2.60;;;;;;;1.55;100.00;100065.78;6198219;28;20073;-73
2021/12/09 01:10:25;;;;;;;8.52;4.25;;;;;;;1.55;100.00;100061.47;6197670;28;20096;-74
2021/12/09 01:13:28;;;;;;;7.88;4.05;;;;;;;1.51;100.00;100062.44;6198044;28;20046;-74
2021/12/09 01:16:29;;;;;;;12.85;3.22;;;;;;;1.51;100.00;100060.69;6204140;28;20072;-74
2021/12/09 01:19:30;;;;;;;5.75;2.90;;;;;;;1.47;100.00;100055.63;6211049;28;20053;-74
2021/12/09 01:22:37;;;;;;;6.72;3.50;;;;;;;1.47;100.00;100063.41;6197534;28;20494;-74
2021/12/09 01:25:39;;;;;;;9.80;4.68;;;;;;;1.46;100.00;100062.56;6198048;28;20053;-74
2021/12/09 01:28:47;;;;;;;5.32;3.15;;;;;;;1.47;100.00;100059.06;6197583;28;20677;-73
2021/12/09 01:31:55;;;;;;;4.47;2.90;;;;;;;1.46;100.00;100061.72;6197557;28;20046;-74
2021/12/09 01:34:57;;;;;;;7.80;3.63;;;;;;;1.44;100.00;100056.56;6197655;28;20054;-74
2021/12/09 01:38:01;;;;;;;9.63;3.45;;;;;;;1.42;100.00;100050.59;6197605;28;20438;-74
2021/12/09 01:41:03;;;;;;;7.70;3.88;;;;;;;1.40;100.00;100052.34;6197636;28;20061;-74
2021/12/09 01:44:06;;;;;;;6.65;3.72;;;;;;;1.37;100.00;100049.00;6197605;28;20042;-74
2021/12/09 01:47:07;;;;;;;9.45;3.22;;;;;;;1.34;100.00;100051.69;6197654;28;20046;-74
2021/12/09 01:50:10;;;;;;;6.10;2.65;;;;;;;1.32;100.00;100053.44;6208773;28;20049;-74
2021/12/09 01:53:11;;;;;;;5.10;2.63;;;;;;;1.26;100.00;100046.69;6221721;28;20050;-75
2021/12/09 01:56:21;;;;;;;6.95;3.42;;;;;;;1.21;100.00;100059.75;6221709;28;20053;-74
2021/12/09 01:59:24;;;;;;;7.35;3.03;;;;;;;1.15;100.00;100059.06;6202705;28;20136;-74
2021/12/09 02:02:26;;;;;;;7.65;3.30;;;;;;;1.15;100.00;100065.09;6197098;28;20166;-74
2021/12/09 02:05:28;;;;;;;5.93;3.35;;;;;;;1.19;100.00;100060.69;6197322;28;20061;-74
2021/12/09 02:08:30;;;;;;;5.72;2.90;;;;;;;1.23;100.00;100064.91;6197236;28;20057;-74
2021/12/09 02:11:31;;;;;;;8.43;3.70;;;;;;;1.23;100.00;100064.91;6198060;28;20057;-73
2021/12/09 02:14:34;;;;;;;8.45;3.90;;;;;;;1.20;100.00;100060.66;6201588;28;20414;-73
2021/12/09 02:17:36;;;;;;;5.18;3.17;;;;;;;1.21;100.00;100057.16;6201821;28;20061;-74
2021/12/09 02:20:40;;;;;;;10.82;3.58;;;;;;;1.20;100.00;100054.63;6213791;28;20053;-73
2021/12/09 02:23:43;;;;;;;7.45;3.88;;;;;;;1.19;100.00;100048.59;6225790;28;20127;-75
2021/12/09 02:26:49;;;;;;;6.63;3.22;;;;;;;1.17;100.00;100057.28;6225619;28;20127;-74
2021/12/09 02:29:50;;;;;;;5.95;3.08;;;;;;;1.12;100.00;100057.41;6225655;28;20057;-74
2021/12/09 02:32:52;;;;;;;12.93;4.40;;;;;;;1.13;100.00;100061.69;6224896;28;20125;-74
2021/12/09 02:35:54;;;;;;;8.13;3.30;;;;;;;1.17;100.00;100065.03;6216364;28;20050;-74
2021/12/09 02:38:56;;;;;;;11.93;4.53;;;;;;;1.20;100.00;100060.66;6217318;28;20128;-74
2021/12/09 02:41:58;;;;;;;4.30;3.03;;;;;;;1.23;100.00;100057.16;6224882;28;20050;-74
2021/12/09 02:44:59;;;;;;;10.40;4.50;;;;;;;1.24;100.00;100064.84;6220047;28;20583;-74
2021/12/09 02:48:01;;;;;;;6.82;3.45;;;;;;;1.26;100.00;100057.03;6222385;28;20049;-74
2021/12/09 02:51:05;;;;;;;7.80;4.05;;;;;;;1.29;100.00;100061.31;6223489;28;20061;-74
2021/12/09 02:54:10;;;;;;;9.60;3.35;;;;;;;1.30;100.00;100066.44;6224862;28;20057;-74
2021/12/09 02:57:13;;;;;;;5.68;3.97;;;;;;;1.29;100.00;100075.09;6218046;28;20050;-74
2021/12/09 03:00:15;;;;;;;7.43;4.07;;;;;;;1.24;100.00;100080.38;6223741;28;20060;-74
2021/12/09 03:03:16;;;;;;;12.90;4.15;;;;;;;1.24;100.00;100082.13;6224751;28;20394;-74
2021/12/09 03:06:21;;;;;;;8.82;3.42;;;;;;;1.22;100.00;100079.56;6223935;28;20060;-74
2021/12/09 03:09:23;;;;;;;8.48;4.15;;;;;;;1.22;100.00;100082.16;6224272;28;20058;-74
2021/12/09 03:12:27;;;;;;;5.70;2.95;;;;;;;1.25;100.00;100083.81;6210268;28;20046;-73
2021/12/09 03:15:28;;;;;;;6.38;3.33;;;;;;;1.23;100.00;100088.19;6224699;28;20046;-74
2021/12/09 03:18:30;;;;;;;7.97;4.18;;;;;;;1.20;100.00;100080.50;6215624;28;20053;-73
2021/12/09 03:21:35;;;;;;;7.32;4.60;;;;;;;1.22;100.00;100081.31;6215705;28;20057;-74
2021/12/09 03:24:36;;;;;;;7.70;3.90;;;;;;;1.19;100.00;100087.41;6214932;28;20042;-74
2021/12/09 03:27:39;;;;;;;8.50;3.65;;;;;;;1.20;100.00;100089.13;6224095;28;20049;-74
2021/12/09 03:30:40;;;;;;;8.32;3.83;;;;;;;1.19;100.00;100089.16;6223940;28;20096;-74
2021/12/09 03:33:41;;;;;;;9.23;4.82;;;;;;;1.19;100.00;100087.41;6223999;28;20053;-73
2021/12/09 03:36:47;;;;;;;17.27;6.20;;;;;;;1.24;100.00;100072.63;6223869;28;20046;-74
2021/12/09 03:39:50;;;;;;;8.05;4.18;;;;;;;1.26;100.00;100082.94;6223743;28;20057;-73
2021/12/09 03:42:52;;;;;;;12.00;5.40;;;;;;;1.25;100.00;100083.81;6223984;28;20453;-74
2021/12/09 03:45:55;;;;;;;12.32;5.97;;;;;;;1.23;100.00;100075.25;6223787;28;20050;-73
2021/12/09 03:48:57;;;;;;;10.80;5.00;;;;;;;1.23;100.00;100077.84;6223583;28;20507;-74
2021/12/09 03:52:00;;;;;;;10.02;5.47;;;;;;;1.19;100.00;100082.25;6201325;28;20049;-73
2021/12/09 03:55:01;;;;;;;9.45;4.53;;;;;;;1.16;100.00;100076.28;6199451;28;20525;-74
2021/12/09 03:58:03;;;;;;;13.20;6.85;;;;;;;1.15;100.00;100074.59;6199308;28;20054;-73
2021/12/09 04:01:04;;;;;;;16.33;5.80;;;;;;;1.16;100.00;100071.13;6198920;28;20050;-73
2021/12/09 04:04:06;;;;;;;11.73;5.10;;;;;;;1.13;100.00;100068.59;6199072;28;20047;-74
2021/12/09 04:07:09;;;;;;;9.90;5.07;;;;;;;1.12;100.00;100080.69;6198957;28;20497;-74
2021/12/09 04:10:11;;;;;;;11.07;5.18;;;;;;;1.12;100.00;100069.50;6198810;28;20086;-74
2021/12/09 04:13:12;;;;;;;9.70;5.28;;;;;;;1.09;100.00;100074.75;6198943;28;20053;-74
2021/12/09 04:16:14;;;;;;;16.98;4.93;;;;;;;1.08;100.00;100073.03;6210979;28;20536;-73
2021/12/09 04:19:15;;;;;;;12.38;5.32;;;;;;;1.08;100.00;100073.03;6223696;28;20050;-74
2021/12/09 04:22:20;;;;;;;11.15;4.90;;;;;;;1.06;100.00;100069.66;6223175;28;20057;-74
2021/12/09 04:25:24;;;;;;;14.82;5.45;;;;;;;1.05;100.00;100061.06;6222904;28;20054;-74
2021/12/09 04:28:26;;;;;;;10.55;5.25;;;;;;;1.04;100.00;100071.41;6223180;28;20053;-73
2021/12/09 04:31:28;;;;;;;14.60;7.55;;;;;;;1.04;100.00;100081.78;6222832;28;20046;-74
2021/12/09 04:34:30;;;;;;;13.52;5.28;;;;;;;1.01;100.00;100087.88;6220967;28;20497;-74
2021/12/09 04:37:32;;;;;;;11.23;5.13;;;;;;;0.97;100.00;100092.28;6219075;28;20056;-73
2021/12/09 04:40:34;;;;;;;21.77;6.50;;;;;;;0.95;100.00;100095.78;6212441;28;20061;-73
2021/12/09 04:43:40;;;;;;;10.25;6.30;;;;;;;0.97;100.00;100100.03;6222769;28;20512;-74
2021/12/09 04:46:41;;;;;;;25.20;8.00;;;;;;;1.00;100.00;100104.31;6214292;28;20193;-73
2021/12/09 04:49:42;;;;;;;19.73;7.18;;;;;;;0.98;100.00;100100.88;6222552;28;20052;-74
2021/12/09 04:52:45;;;;;;;17.10;8.00;;;;;;;0.97;100.00;100101.78;6222362;28;20050;-74
2021/12/09 04:55:46;;;;;;;16.98;5.88;;;;;;;0.99;100.00;100098.25;6222404;28;20053;-74
2021/12/09 04:58:48;;;;;;;14.23;6.85;;;;;;;1.00;100.00;100099.13;6218587;28;20437;-74
2021/12/09 05:01:50;;;;;;;18.40;7.38;;;;;;;0.99;100.00;100102.59;6218134;28;20046;-74
2021/12/09 05:04:52;;;;;;;18.27;6.93;;;;;;;1.00;100.00;100099.13;6222335;28;20133;-74
2021/12/09 05:07:54;;;;;;;21.52;8.02;;;;;;;1.03;100.00;100099.03;6220610;28;20053;-73
2021/12/09 05:11:04;;;;;;;11.82;6.45;;;;;;;1.04;100.00;100103.31;6221940;28;20046;-73
2021/12/09 05:14:05;;;;;;;;;;;;;;;1.07;100.00;100099.81;6222686;28;20092;-74
2021/12/09 05:17:07;;;;;;;15.60;6.03;;;;;;;1.06;100.00;100098.13;6222410;28;19928;-73
2021/12/09 05:20:09;;;;;;;18.83;8.40;;;;;;;1.02;100.00;100107.69;6213603;28;20045;-74
2021/12/09 05:23:12;;;;;;;16.00;7.15;;;;;;;0.99;100.00;100115.50;6222234;28;20045;-74
2021/12/09 05:26:15;;;;;;;23.02;7.88;;;;;;;0.99;100.00;100110.34;6222093;28;20502;-74
2021/12/09 05:29:18;;;;;;;21.00;9.30;;;;;;;1.00;100.00;100118.09;6222203;28;20045;-74
2021/12/09 05:32:20;;;;;;;12.50;6.00;;;;;;;1.01;100.00;100126.69;6215197;28;20046;-73
2021/12/09 05:35:22;;;;;;;20.00;7.72;;;;;;;1.01;100.00;100127.53;6197701;28;20078;-73
2021/12/09 05:38:25;;;;;;;18.73;7.30;;;;;;;1.00;100.00;100123.25;6197448;28;20062;-73
2021/12/09 05:41:26;;;;;;;14.85;6.50;;;;;;;0.99;100.00;100125.88;6197271;28;20418;-73
2021/12/09 05:44:28;;;;;;;18.83;8.95;;;;;;;1.00;100.00;100130.19;6197379;28;20050;-74
2021/12/09 05:47:30;;;;;;;15.52;6.90;;;;;;;1.00;100.00;100132.75;6200179;28;20055;-73
2021/12/09 05:50:31;;;;;;;21.52;9.07;;;;;;;1.03;100.00;100135.25;6201985;28;20046;-73
2021/12/09 05:53:34;;;;;;;24.88;8.00;;;;;;;1.05;100.00;100138.66;6201890;28;20512;-73
2021/12/09 05:56:36;;;;;;;15.48;7.55;;;;;;;1.07;100.00;100146.38;6202111;28;20054;-73
2021/12/09 05:59:40;;;;;;;21.67;9.27;;;;;;;1.05;100.00;100140.41;6221650;28;20046;-73
2021/12/09 06:02:42;;;;;;;18.05;7.50;;;;;;;1.04;100.00;100147.28;6226254;28;20054;-72
2021/12/09 06:05:43;;;;;;;14.60;7.63;;;;;;;1.05;100.00;100146.44;6225877;28;20046;-73
2021/12/09 06:08:46;;;;;;;22.08;6.70;;;;;;;1.05;100.00;100138.66;6226111;28;20053;-73
2021/12/09 06:11:49;;;;;;;12.30;7.07;;;;;;;1.05;100.00;100145.59;6225773;28;20046;-73
2021/12/09 06:14:51;;;;;;;18.55;8.18;;;;;;;1.07;100.00;100134.28;6226074;28;20440;-72
2021/12/09 06:17:52;;;;;;;15.90;6.50;;;;;;;1.05;100.00;100138.66;6225818;28;20056;-73
2021/12/09 06:20:53;;;;;;;14.70;7.28;;;;;;;1.05;100.00;100136.09;6223882;28;20049;-72
2021/12/09 06:23:56;;;;;;;20.83;7.63;;;;;;;1.01;100.00;100142.22;6218735;28;20433;-73
2021/12/09 06:26:59;;;;;;;18.98;9.75;;;;;;;1.01;100.00;100148.25;6220296;28;20042;-73
2021/12/09 06:30:00;;;;;;;22.27;8.95;;;;;;;0.99;100.00;100160.34;6222624;28;20132;-73
2021/12/09 06:33:02;;;;;;;15.05;6.72;;;;;;;0.97;100.00;100161.28;6224415;28;20141;-73
2021/12/09 06:36:04;;;;;;;21.25;7.50;;;;;;;0.98;100.00;100169.00;6219384;28;20498;-73
2021/12/09 06:39:07;;;;;;;16.38;7.30;;;;;;;0.97;100.00;100167.31;6216952;28;20053;-73
2021/12/09 06:42:10;;;;;;;24.58;8.25;;;;;;;0.97;100.00;100172.47;6216807;28;20047;-73
2021/12/09 06:45:12;;;;;;;22.77;8.18;;;;;;;0.96;100.00;100178.53;6223660;28;20177;-73
2021/12/09 06:48:14;;;;;;;14.68;8.40;;;;;;;0.97;100.00;100175.06;6220079;28;20061;-73
2021/12/09 06:51:15;;;;;;;17.45;7.47;;;;;;;0.97;100.00;100174.22;6222901;28;20045;-73
2021/12/09 06:54:18;;;;;;;22.85;8.15;;;;;;;0.98;100.00;100174.16;6222562;28;20057;-74
2021/12/09 06:57:19;;;;;;;20.98;7.88;;;;;;;1.02;100.00;100182.72;6216297;28;20046;-73
2021/12/09 07:00:24;;;;;;;22.33;8.43;;;;;;;1.01;100.00;100178.44;6223026;28;20053;-74
2021/12/09 07:03:26;;;;;;;15.68;6.45;;;;;;;0.98;100.00;100175.91;6224563;28;20509;-73
2021/12/09 07:06:27;;;;;;;15.07;6.85;;;;;;;0.98;100.00;100175.91;6223256;28;20548;-74
2021/12/09 07:09:30;;;;;;;25.77;8.48;;;;;;;0.96;100.00;100175.97;6224543;28;20049;-74
2021/12/09 07:12:34;;;;;;;23.60;9.88;;;;;;;1.05;100.00;100176.63;6224278;28;20399;-73
2021/12/09 07:15:36;;;;;;;17.45;7.28;;;;;;;1.00;100.00;100189.69;6222800;28;20050;-74
2021/12/09 07:18:38;;;;;;;23.20;8.05;;;;;;;1.01;100.00;100186.19;6224386;28;20487;-74
2021/12/09 07:21:41;;;;;;;20.90;7.57;;;;;;;1.00;100.00;100187.94;6224055;28;20049;-73
2021/12/09 07:24:43;;;;;;;19.27;9.00;;;;;;;1.01;100.00;100179.28;6223874;28;20042;-73
2021/12/09 07:27:45;;;;;;;20.23;7.05;;;;;;;1.00;100.00;100180.19;6224392;28;20053;-73
2021/12/09 07:30:46;;;;;;;16.50;6.75;;;;;;;1.02;100.00;100178.38;6223723;28;20056;-74
2021/12/09 07:33:47;;;;;;;19.88;9.43;;;;;;;1.03;100.00;100179.25;6224135;28;20057;-74
2021/12/09 07:36:49;;;;;;;14.07;6.75;;;;;;;1.01;100.00;100181.88;6223986;28;20053;-74
2021/12/09 07:39:52;;;;;;;18.15;6.82;;;;;;;0.99;100.00;100186.22;6221745;28;20061;-73
2021/12/09 07:42:53;;;;;;;36.17;9.13;;;;;;;1.01;100.00;100186.19;6223937;28;20049;-74
2021/12/09 07:45:54;;;;;;;23.15;9.32;;;;;;;1.00;100.00;100193.09;6223524;28;20053;-74
2021/12/09 07:48:56;;;;;;;14.50;5.90;;;;;;;0.94;100.00;100197.56;6223680;28;20050;-74
2021/12/09 07:51:57;;;;;;;20.50;6.88;;;;;;;0.92;100.00;100199.34;6223286;28;20429;-74
2021/12/09 07:55:00;;;;;;;18.08;7.20;;;;;;;0.93;100.00;100193.28;6223719;28;20049;-74
2021/12/09 07:58:01;;;;;;;15.02;6.57;;;;;;;0.96;100.00;100201.81;6223436;28;20054;-74
2021/12/09 08:01:03;;;;;;;16.55;6.43;;;;;;;0.98;100.00;100196.59;6223515;28;20053;-74
2021/12/09 08:04:05;;;;;;;17.63;7.03;;;;;;;0.94;100.00;100203.59;6223459;28;20046;-75
2021/12/09 08:07:06;;;;;;;14.13;5.50;;;;;;;0.86;100.00;100208.06;6222654;28;20058;-74
2021/12/09 08:10:12;;;;;;;22.30;7.57;;;;;;;0.88;100.00;100203.72;6221988;28;20053;-73
2021/12/09 08:13:13;;;;;;;16.02;7.03;;;;;;;0.92;100.00;100200.19;6223052;28;20061;-74
2021/12/09 08:16:16;;;;;;;12.85;6.28;;;;;;;0.90;100.00;100201.94;6222376;28;20042;-74
2021/12/09 08:19:17;;;;;;;17.23;7.15;;;;;;;0.86;100.00;100208.06;6222886;28;20065;-74
2021/12/09 08:22:18;;;;;;;23.35;7.93;;;;;;;0.90;100.00;100195.94;6222978;28;20077;-74
2021/12/09 08:25:22;;;;;;;14.02;6.90;;;;;;;0.91;100.00;100200.19;6222739;28;20057;-74
2021/12/09 08:28:24;;;;;;;15.77;6.28;;;;;;;0.93;100.00;100195.88;6206607;28;20050;-74
2021/12/09 08:31:30;;;;;;;21.00;7.22;;;;;;;1.01;100.00;100206.91;6198130;28;20513;-73
2021/12/09 08:34:32;;;;;;;12.88;5.93;;;;;;;1.03;100.00;100207.69;6198578;28;20189;-74
2021/12/09 08:37:33;;;;;;;20.67;7.22;;;;;;;1.06;100.00;100205.03;6198242;28;20421;-74
2021/12/09 08:40:37;;;;;;;12.73;6.25;;;;;;;1.09;100.00;100211.88;6197961;28;20417;-74
2021/12/09 08:43:38;;;;;;;22.30;8.48;;;;;;;1.08;100.00;100208.44;6197995;28;20050;-74
2021/12/09 08:46:40;;;;;;;17.25;7.50;;;;;;;1.11;100.00;100208.38;6198278;28;20050;-74
2021/12/09 08:49:41;;;;;;;17.17;7.30;;;;;;;1.17;100.00;100208.22;6198014;28;20054;-74
2021/12/09 08:52:42;;;;;;;20.17;7.82;;;;;;;1.18;100.00;100203.88;6197745;28;20061;-74
2021/12/09 08:55:45;;;;;;;16.23;5.25;;;;;;;1.21;100.00;100203.84;6198218;28;20422;-74
2021/12/09 08:58:47;;;;;;;19.23;6.70;;;;;;;1.24;100.00;100209.78;6198009;28;20406;-74
2021/12/09 09:01:51;;;;;;;17.58;7.43;;;;;;;1.23;100.00;100212.44;6198408;28;20550;-74
2021/12/09 09:04:53;;;;;;;13.80;6.88;;;;;;;1.19;100.00;100216.81;6197677;28;20426;-74
2021/12/09 09:07:54;;;;;;;22.85;8.10;;;;;;;1.13;100.00;100219.53;6197901;28;20054;-74
2021/12/09 09:10:57;;;;;;;18.63;6.25;;;;;;;1.15;100.00;100222.09;6197465;28;20054;-74
2021/12/09 09:13:59;;;;;;;15.40;6.93;;;;;;;1.17;100.00;100222.91;6197830;28;20094;-74
2021/12/09 09:17:00;;;;;;;23.00;7.80;;;;;;;1.14;100.00;100226.44;6220668;28;20493;-74
2021/12/09 09:20:02;;;;;;;19.35;7.47;;;;;;;1.15;100.00;100225.53;6215821;28;20677;-74
2021/12/09 09:23:04;;;;;;;18.33;5.80;;;;;;;1.14;100.00;100226.44;6212716;28;20046;-74
2021/12/09 09:26:06;;;;;;;15.13;5.93;;;;;;;1.17;100.00;100225.50;6212684;28;20117;-74
2021/12/09 09:29:08;;;;;;;17.17;6.00;;;;;;;1.20;100.00;100230.59;6207970;28;20061;-74
2021/12/09 09:32:12;;;;;;;20.05;8.20;;;;;;;1.21;100.00;100237.47;6202305;28;20456;-74
2021/12/09 09:35:14;;;;;;;20.77;7.97;;;;;;;1.21;100.00;100233.16;6221893;28;20046;-74
2021/12/09 09:38:16;;;;;;;16.42;6.90;;;;;;;1.23;100.00;100233.97;6219111;28;20398;-74
2021/12/09 09:41:20;;;;;;;17.95;7.00;;;;;;;1.22;100.00;100237.44;6212348;28;20414;-73
2021/12/09 09:44:30;;;;;;;20.23;7.47;;;;;;;1.21;100.00;100246.09;6203042;28;20050;-74
2021/12/09 09:47:31;;;;;;;17.95;5.72;;;;;;;1.19;100.00;100244.44;6203027;28;20057;-74
2021/12/09 09:50:33;;;;;;;23.13;9.30;;;;;;;1.23;100.00;100239.16;6201979;28;20050;-74
2021/12/09 09:53:35;;;;;;;14.70;6.63;;;;;;;1.21;100.00;100240.91;6210676;28;20057;-74
2021/12/09 09:56:41;;;;;;;16.92;7.63;;;;;;;1.23;100.00;100240.91;6225848;28;20053;-74
2021/12/09 09:59:43;;;;;;;18.42;6.85;;;;;;;1.27;100.00;100234.72;6226308;28;20145;-73
2021/12/09 10:02:51;;;;;;;19.58;7.10;;;;;;;1.24;100.00;100240.84;6226027;28;20050;-74
2021/12/09 10:05:57;;;;;;;25.33;9.55;;;;;;;1.26;100.00;100233.03;6225901;28;20413;-75
2021/12/09 10:08:58;;;;;;;19.08;7.63;;;;;;;1.35;100.00;100235.41;6226092;28;20050;-74
2021/12/09 10:12:01;;;;;;;21.08;7.63;;;;;;;1.34;100.00;100236.31;6225827;28;20076;-74
2021/12/09 10:15:04;;;;;;;20.42;6.80;;;;;;;1.32;100.00;100232.91;6225922;28;20046;-74
2021/12/09 10:18:05;;;;;;;20.70;7.70;;;;;;;1.38;100.00;100226.72;6225702;28;20053;-74
2021/12/09 10:21:08;;;;;;;14.18;6.47;;;;;;;1.40;100.00;100230.97;6225694;28;20053;-74
2021/12/09 10:24:09;;;;;;;18.10;7.78;;;;;;;1.40;100.00;100230.13;6223173;28;20064;-74
2021/12/09 10:27:22;;;;;;;18.23;6.68;;;;;;;1.43;100.00;100227.47;6225704;28;20069;-74
2021/12/09 10:30:24;;;;;;;24.90;7.78;;;;;;;1.42;100.00;100229.22;6225333;28;20053;-74
2021/12/09 10:33:25;;;;;;;21.30;7.80;;;;;;;1.44;100.00;100222.25;6207134;28;20464;-74
2021/12/09 10:36:55;;;;;;;22.80;7.82;;;;;;;1.52;100.00;100220.31;6201143;28;20046;-74
2021/12/09 10:39:59;;;;;;;23.10;8.88;;;;;;;1.58;100.00;100221.06;6166469;28;20054;-74
2021/12/09 10:43:04;;;;;;;26.05;7.70;;;;;;;1.62;100.00;100218.34;6204127;28;20057;-74
2021/12/09 10:46:09;;;;;;;15.90;7.97;;;;;;;1.67;100.00;100213.06;6210780;28;20049;-74
2021/12/09 10:49:12;;;;;;;16.80;6.85;;;;;;;1.73;100.00;100208.59;6200651;28;20426;-74
2021/12/09 10:52:21;;;;;;;15.88;6.53;;;;;;;1.77;100.00;100199.84;6200618;28;20078;-74
2021/12/09 10:55:26;;;;;;;20.02;8.38;;;;;;;1.84;100.00;100192.75;6215592;28;20049;-74
2021/12/09 10:58:32;;;;;;;19.58;7.38;;;;;;;1.90;100.00;100189.97;6225142;28;20421;-73
2021/12/09 11:01:34;;;;;;;12.10;6.65;;;;;;;1.94;100.00;100183.84;6224448;28;20185;-74
2021/12/09 11:04:35;;;;;;;16.42;7.45;;;;;;;1.95;100.00;100182.09;6224723;28;20081;-74
2021/12/09 11:07:37;;;;;;;19.50;6.47;;;;;;;1.98;100.00;100182.00;6224741;28;20050;-74
2021/12/09 11:10:45;;;;;;;19.67;7.70;;;;;;;2.02;100.00;100170.69;6215360;28;20402;-74
2021/12/09 11:13:52;;;;;;;16.97;7.30;;;;;;;2.11;100.00;100182.53;6210545;28;20056;-74
2021/12/09 11:17:02;;;;;;;23.20;8.40;;;;;;;2.17;100.00;100179.75;6213124;28;20300;-74
2021/12/09 11:20:05;;;;;;;25.85;6.22;;;;;;;2.26;100.00;100176.91;6212230;28;20054;-74
2021/12/09 11:23:25;;;;;;;18.55;6.55;;;;;;;2.31;100.00;100174.19;6208363;28;20042;-74
2021/12/09 11:26:50;;;;;;;16.67;6.97;;;;;;;2.27;100.00;100171.69;6210319;28;20042;-74
2021/12/09 11:30:00;;;;;;;19.20;8.43;;;;;;;2.27;100.00;100163.03;6212728;28;20049;-74
2021/12/09 11:33:02;;;;;;;;;;;;;;;2.22;100.00;100163.19;6209755;28;20050;-74
2021/12/09 11:36:04;;;;;;;14.00;6.18;;;;;;;2.20;100.00;100164.97;6205009;28;19965;-74
2021/12/09 11:39:11;;;;;;;21.20;6.60;;;;;;;2.21;100.00;100153.72;6202347;28;20489;-74
2021/12/09 11:42:19;;;;;;;23.25;8.40;;;;;;;2.18;100.00;100160.72;6202225;28;20046;-74
2021/12/09 11:45:24;;;;;;;21.83;7.35;;;;;;;2.13;100.00;100158.25;6198334;28;20053;-74
2021/12/09 11:48:27;;;;;;;19.30;6.43;;;;;;;2.05;100.00;100162.81;6198661;28;20050;-74
2021/12/09 11:51:28;;;;;;;15.35;7.28;;;;;;;1.98;100.00;100161.28;6199342;28;20076;-75
2021/12/09 11:54:29;;;;;;;16.60;7.45;;;;;;;1.94;100.00;100147.56;6199568;28;20059;-73
2021/12/09 11:57:37;;;;;;;21.73;7.05;;;;;;;2.05;100.00;100147.28;6199345;28;20054;-74
2021/12/09 12:07:56;;;;;;;17.90;6.13;;;;;;;2.56;100.00;100131.09;6223673;28;20421;-74
2021/12/09 12:11:18;;;;;;;18.48;6.95;;;;;;;2.84;100.00;100132.81;6211723;28;20046;-74
2021/12/09 12:14:35;;;;;;;21.75;6.97;;;;;;;2.99;100.00;100133.16;6208124;28;20054;-76
2021/12/09 12:18:11;;;;;;;15.45;6.18;;;;;;;3.04;100.00;100126.13;6208768;28;20498;-74
2021/12/09 12:28:23;;;;;;;11.65;6.03;;;;;;;2.97;100.00;100123.75;6210680;28;20050;-74
2021/12/09 12:35:32;;;;;;;12.23;5.88;;;;;;;2.94;100.00;100116.91;6209068;28;20493;-75
2021/12/09 12:38:50;;;;;;;17.08;5.32;;;;;;;2.96;100.00;100103.91;6200127;28;20054;-75
2021/12/09 12:42:00;;;;;;;23.13;6.68;;;;;;;2.94;100.00;100106.53;6197368;28;20502;-75
2021/12/09 12:45:25;;;;;;;19.23;6.85;;;;;;;2.91;100.00;100108.41;6197352;28;20054;-74
2021/12/09 12:49:00;;;;;;;13.13;5.28;;;;;;;2.89;100.00;100105.81;6197330;28;20050;-75
2021/12/09 12:52:09;;;;;;;12.05;5.15;;;;;;;2.84;100.00;100102.53;6196913;28;20052;-75
2021/12/09 12:55:14;;;;;;;13.43;5.63;;;;;;;2.80;100.00;100114.75;6197107;28;20069;-75
2021/12/09 12:58:15;;;;;;;14.05;6.05;;;;;;;2.75;100.00;100121.00;6218238;28;20049;-74
2021/12/09 13:01:18;;;;;;;14.55;5.25;;;;;;;2.73;100.00;100122.78;6221439;28;20054;-75
2021/12/09 13:04:46;;;;;;;19.08;6.45;;;;;;;2.72;100.00;100126.25;6221436;28;20053;-74
2021/12/09 13:08:10;;;;;;;14.15;5.80;;;;;;;2.73;100.00;100120.19;6221280;28;20057;-74
2021/12/09 13:14:33;;;;;;;9.95;4.53;;;;;;;2.75;100.00;100128.78;6215544;28;20050;-75
2021/12/09 13:17:37;;;;;;;12.52;5.13;;;;;;;2.77;100.00;100126.97;6207973;28;20131;-74
2021/12/09 13:20:39;;;;;;;12.35;5.70;;;;;;;2.77;100.00;100114.88;6209644;28;20085;-75
2021/12/09 13:23:42;;;;;;;12.32;5.68;;;;;;;2.77;100.00;100116.59;6207517;28;20413;-74
2021/12/09 13:27:25;;;;;;;12.77;6.57;;;;;;;2.73;100.00;100125.41;6208186;28;20533;-74
2021/12/09 13:34:00;;;;;;;14.73;5.80;;;;;;;2.70;100.00;100130.66;6222024;28;20045;-74
2021/12/09 13:37:31;;;;;;;13.38;5.93;;;;;;;2.70;100.00;100130.66;6209705;28;20054;-74
2021/12/09 13:45:50;;;;;;;13.38;5.25;;;;;;;2.69;100.00;100127.22;6209562;28;20065;-74
2021/12/09 13:47:45;;;;;;;16.33;5.78;;;;;;;2.70;100.00;100134.09;6197474;28;20058;-75
2021/12/09 13:50:54;;;;;;;15.52;7.03;;;;;;;2.66;100.00;100124.72;6197767;28;20054;-75
2021/12/09 13:54:17;;;;;;;13.48;4.82;;;;;;;2.71;100.00;100128.00;6197583;28;20510;-75
2021/12/09 13:57:30;;;;;;;14.27;5.85;;;;;;;2.76;100.00;100133.91;6213350;28;20050;-75
2021/12/09 14:00:36;;;;;;;13.18;5.40;;;;;;;2.80;100.00;100140.69;6221664;28;20497;-75
2021/12/09 14:03:37;;;;;;;12.13;5.43;;;;;;;2.81;100.00;100136.34;6221842;28;20073;-75
2021/12/09 14:06:46;;;;;;;13.18;5.57;;;;;;;2.85;100.00;100137.97;6221632;28;20417;-75
2021/12/09 14:09:57;;;;;;;19.58;6.35;;;;;;;2.86;100.00;100142.28;6225959;28;20057;-74
2021/12/09 14:13:03;;;;;;;9.68;4.93;;;;;;;2.89;100.00;100149.09;6225978;28;20056;-75
2021/12/09 14:16:13;;;;;;;13.50;5.68;;;;;;;2.89;100.00;100149.09;6226331;28;20395;-75
2021/12/09 14:22:41;;;;;;;15.65;4.75;;;;;;;2.89;100.00;100173.28;6225250;28;20062;-74
2021/12/09 14:25:44;;;;;;;14.18;5.75;;;;;;;2.87;100.00;100167.31;6225056;28;20052;-75
2021/12/09 14:28:46;;;;;;;19.58;7.05;;;;;;;2.86;100.00;100156.97;6225069;28;20050;-75
2021/12/09 14:31:50;;;;;;;13.80;6.40;;;;;;;2.85;100.00;100163.06;6225534;28;20137;-75
2021/12/09 14:34:53;;;;;;;13.57;4.90;;;;;;;2.87;100.00;100163.88;6225552;28;20053;-74
2021/12/09 14:37:55;;;;;;;18.63;7.72;;;;;;;2.85;100.00;100168.25;6225788;28;20461;-76
2021/12/09 14:41:02;;;;;;;12.90;5.03;;;;;;;2.85;100.00;100171.69;6225496;28;20050;-75